createdAt,value
2022-09-15T00:01:17.082Z,99.90
2022-09-15T00:03:46.219Z,99.90
2022-09-15T00:06:14.679Z,99.90
2022-09-15T00:08:43.101Z,99.90
2022-09-15T00:11:15.999Z,99.90
2022-09-15T00:13:44.946Z,99.90
2022-09-15T00:16:15.362Z,99.90
2022-09-15T00:18:46.181Z,99.90
2022-09-15T00:21:16.755Z,99.90
2022-09-15T00:23:44.987Z,99.90
2022-09-15T00:26:15.588Z,99.90
2022-09-15T00:28:44.588Z,99.90
2022-09-15T00:31:15.001Z,99.90
2022-09-15T00:33:47.343Z,99.90
2022-09-15T00:36:16.061Z,99.90
2022-09-15T00:38:44.748Z,99.90
2022-09-15T00:41:15.222Z,99.90
2022-09-15T00:43:47.112Z,99.90
2022-09-15T00:46:16.085Z,99.90
2022-09-15T00:48:49.774Z,99.90
2022-09-15T00:51:20.515Z,99.90
2022-09-15T00:53:50.384Z,99.90
2022-09-15T00:56:20.003Z,99.90
2022-09-15T00:58:53.364Z,99.90
2022-09-15T01:01:21.780Z,99.90
2022-09-15T01:03:51.221Z,99.90
2022-09-15T01:06:25.191Z,99.90
2022-09-15T01:08:57.838Z,99.90
2022-09-15T01:11:26.149Z,99.90
2022-09-15T01:13:54.199Z,99.90
2022-09-15T01:16:30.245Z,99.90
2022-09-15T01:19:08.142Z,99.90
2022-09-15T01:21:44.195Z,99.90
2022-09-15T01:24:40.480Z,99.90
2022-09-15T01:27:41.183Z,99.90
2022-09-15T01:30:14.037Z,99.90
2022-09-15T01:33:05.471Z,99.90
2022-09-15T01:35:48.450Z,99.90
2022-09-15T01:38:24.083Z,99.90
2022-09-15T01:40:58.151Z,99.90
2022-09-15T01:43:28.397Z,99.90
2022-09-15T01:45:58.756Z,99.90
2022-09-15T01:48:29.624Z,99.90
2022-09-15T01:51:01.680Z,99.90
2022-09-15T01:53:30.704Z,99.90
2022-09-15T01:56:05.082Z,99.90
2022-09-15T01:58:33.072Z,99.90
2022-09-15T02:01:09.483Z,99.90
2022-09-15T02:03:45.009Z,99.90
2022-09-15T02:06:19.465Z,99.90
2022-09-15T02:08:54.800Z,99.90
2022-09-15T02:11:26.593Z,99.90
2022-09-15T02:14:01.619Z,99.90
2022-09-15T02:16:35.873Z,99.90
2022-09-15T02:19:13.017Z,99.90
2022-09-15T02:21:55.153Z,99.90
2022-09-15T02:24:30.091Z,99.90
2022-09-15T02:26:59.366Z,99.90
2022-09-15T02:29:29.188Z,99.90
2022-09-15T02:32:06.867Z,99.90
2022-09-15T02:34:39.657Z,99.90
2022-09-15T02:37:09.283Z,99.90
2022-09-15T02:39:40.906Z,99.90
2022-09-15T02:42:09.113Z,99.90
2022-09-15T02:44:37.744Z,99.90
2022-09-15T02:47:07.422Z,99.90
2022-09-15T02:49:35.431Z,99.90
2022-09-15T02:52:04.517Z,99.90
2022-09-15T02:54:32.545Z,99.90
2022-09-15T02:57:01.260Z,99.90
2022-09-15T02:59:50.098Z,99.90
2022-09-15T03:02:20.768Z,99.90
2022-09-15T03:04:49.046Z,99.90
2022-09-15T03:07:17.594Z,99.90
2022-09-15T03:09:46.038Z,99.90
2022-09-15T03:12:14.354Z,99.90
2022-09-15T03:14:42.880Z,99.90
2022-09-15T03:17:11.039Z,99.90
2022-09-15T03:19:40.383Z,99.90
2022-09-15T03:22:09.519Z,99.90
2022-09-15T03:24:37.901Z,99.90
2022-09-15T03:27:06.840Z,99.90
2022-09-15T03:29:34.912Z,99.90
2022-09-15T03:32:03.845Z,99.90
2022-09-15T03:34:31.830Z,99.90
2022-09-15T03:37:01.478Z,99.90
2022-09-15T03:39:29.531Z,99.90
2022-09-15T03:41:57.753Z,99.90
2022-09-15T03:44:25.922Z,99.90
2022-09-15T03:46:54.017Z,99.90
2022-09-15T03:49:22.398Z,99.90
2022-09-15T03:51:50.383Z,99.90
2022-09-15T03:54:20.485Z,99.90
2022-09-15T03:56:49.075Z,99.90
2022-09-15T03:59:19.045Z,99.90
2022-09-15T04:01:47.563Z,99.90
2022-09-15T04:04:16.349Z,99.90
2022-09-15T04:06:44.855Z,99.90
2022-09-15T04:09:12.941Z,99.90
2022-09-15T04:11:42.693Z,99.90
2022-09-15T04:14:10.781Z,99.90
2022-09-15T04:16:39.122Z,99.90
2022-09-15T04:19:07.625Z,99.90
2022-09-15T04:21:35.907Z,99.90
2022-09-15T04:24:06.071Z,99.90
2022-09-15T04:26:35.534Z,99.90
2022-09-15T04:29:06.832Z,99.90
2022-09-15T04:31:35.023Z,99.90
2022-09-15T04:34:03.287Z,99.90
2022-09-15T04:36:31.678Z,99.90
2022-09-15T04:39:00.130Z,99.90
2022-09-15T04:41:28.505Z,99.90
2022-09-15T04:43:56.738Z,99.90
2022-09-15T04:46:26.437Z,99.90
2022-09-15T04:48:54.747Z,99.90
2022-09-15T04:51:23.836Z,99.90
2022-09-15T04:53:52.396Z,99.90
2022-09-15T04:56:22.010Z,99.90
2022-09-15T04:58:52.610Z,99.90
2022-09-15T05:01:22.860Z,99.90
2022-09-15T05:03:53.031Z,99.90
2022-09-15T05:06:22.966Z,99.90
2022-09-15T05:08:55.897Z,99.90
2022-09-15T05:11:24.878Z,99.90
2022-09-15T05:13:53.505Z,99.90
2022-09-15T05:16:23.577Z,99.90
2022-09-15T05:18:55.811Z,99.90
2022-09-15T05:21:25.925Z,99.90
2022-09-15T05:23:54.936Z,99.90
2022-09-15T05:26:25.404Z,99.90
2022-09-15T05:28:54.201Z,99.90
2022-09-15T05:31:25.003Z,99.90
2022-09-15T05:33:55.040Z,99.90
2022-09-15T05:36:25.312Z,99.90
2022-09-15T05:38:56.405Z,99.90
2022-09-15T05:41:26.301Z,99.90
2022-09-15T05:43:56.885Z,99.90
2022-09-15T05:46:26.585Z,99.90
2022-09-15T05:48:57.798Z,99.90
2022-09-15T05:51:26.085Z,99.90
2022-09-15T05:53:54.087Z,99.90
2022-09-15T05:56:22.431Z,99.90
2022-09-15T05:58:50.967Z,99.90
2022-09-15T06:01:20.941Z,99.90
2022-09-15T06:03:49.604Z,99.90
2022-09-15T06:06:19.561Z,99.90
2022-09-15T06:08:53.035Z,99.90
2022-09-15T06:11:27.373Z,99.90
2022-09-15T06:13:55.698Z,99.90
2022-09-15T06:16:25.153Z,99.90
2022-09-15T06:18:54.442Z,99.90
2022-09-15T06:21:25.973Z,99.90
2022-09-15T06:23:55.104Z,99.90
2022-09-15T06:26:24.086Z,99.90
2022-09-15T06:28:54.668Z,99.90
2022-09-15T06:31:23.797Z,99.90
2022-09-15T06:33:54.120Z,99.90
2022-09-15T06:36:26.333Z,99.90
2022-09-15T06:38:55.004Z,99.90
2022-09-15T06:41:23.696Z,99.90
2022-09-15T06:43:53.004Z,99.90
2022-09-15T06:46:22.833Z,99.90
2022-09-15T06:48:51.934Z,99.90
2022-09-15T06:51:21.652Z,99.90
2022-09-15T06:53:51.117Z,99.90
2022-09-15T06:56:21.236Z,99.90
2022-09-15T06:58:49.968Z,99.90
2022-09-15T07:01:22.295Z,99.90
2022-09-15T07:03:50.921Z,99.90
2022-09-15T07:06:19.787Z,99.90
2022-09-15T07:08:48.006Z,99.90
2022-09-15T07:11:18.521Z,99.90
2022-09-15T07:13:47.024Z,99.90
2022-09-15T07:16:16.177Z,99.60
2022-09-15T07:18:44.810Z,96.30
2022-09-15T07:21:14.502Z,92.70
2022-09-15T07:23:43.432Z,85.70
2022-09-15T07:26:14.253Z,75.20
2022-09-15T07:28:45.258Z,66.20
2022-09-15T07:31:15.981Z,63.00
2022-09-15T07:33:44.269Z,59.60
2022-09-15T07:36:12.671Z,58.80
2022-09-15T07:38:42.782Z,57.80
2022-09-15T07:41:13.235Z,56.80
2022-09-15T07:43:46.125Z,57.00
2022-09-15T07:46:14.502Z,57.00
2022-09-15T07:48:46.166Z,56.80
2022-09-15T07:51:15.147Z,55.80
2022-09-15T07:53:43.565Z,54.10
2022-09-15T07:56:11.682Z,51.00
2022-09-15T07:58:40.020Z,46.30
2022-09-15T08:01:11.185Z,41.90
2022-09-15T08:03:42.334Z,39.40
2022-09-15T08:06:11.899Z,37.90
2022-09-15T08:08:41.313Z,36.20
2022-09-15T08:11:13.068Z,34.90
2022-09-15T08:13:43.410Z,33.40
2022-09-15T08:16:15.009Z,33.40
2022-09-15T08:18:44.767Z,32.60
2022-09-15T08:21:14.952Z,32.10
2022-09-15T08:23:43.473Z,31.90
2022-09-15T08:26:14.549Z,31.90
2022-09-15T08:28:43.338Z,31.80
2022-09-15T08:31:14.507Z,32.20
2022-09-15T08:33:45.676Z,32.70
2022-09-15T08:36:14.313Z,33.60
2022-09-15T08:38:44.364Z,33.40
2022-09-15T08:41:16.070Z,32.90
2022-09-15T08:43:48.944Z,32.80
2022-09-15T08:46:21.794Z,33.40
2022-09-15T08:48:59.593Z,33.90
2022-09-15T08:51:38.201Z,34.50
2022-09-15T08:54:12.315Z,35.60
2022-09-15T08:56:42.514Z,35.70
2022-09-15T08:59:14.843Z,37.10
2022-09-15T09:02:11.380Z,38.10
2022-09-15T09:05:00.385Z,40.40
2022-09-15T09:07:42.000Z,43.20
2022-09-15T09:10:15.008Z,46.20
2022-09-15T09:12:57.405Z,47.70
2022-09-15T09:15:37.347Z,49.50
2022-09-15T09:18:42.056Z,51.80
2022-09-15T09:21:19.686Z,55.30
2022-09-15T09:23:53.537Z,58.20
2022-09-15T09:26:21.992Z,60.30
2022-09-15T09:28:56.664Z,61.50
2022-09-15T09:31:28.240Z,61.70
2022-09-15T09:34:06.166Z,62.60
2022-09-15T09:36:35.010Z,62.90
2022-09-15T09:39:05.240Z,63.80
2022-09-15T09:41:38.931Z,64.50
2022-09-15T09:44:11.375Z,65.10
2022-09-15T09:46:39.853Z,64.40
2022-09-15T09:49:17.637Z,63.40
2022-09-15T09:51:53.064Z,62.10
2022-09-15T09:54:25.138Z,60.60
2022-09-15T09:56:54.915Z,58.20
2022-09-15T09:59:40.738Z,56.40
2022-09-15T10:02:17.282Z,53.30
2022-09-15T10:04:48.537Z,49.90
2022-09-15T10:07:20.010Z,43.90
2022-09-15T10:09:53.930Z,39.80
2022-09-15T10:12:31.581Z,36.60
2022-09-15T10:15:02.304Z,34.30
2022-09-15T10:17:41.277Z,31.50
2022-09-15T10:20:25.609Z,30.60
2022-09-15T10:23:02.348Z,30.90
2022-09-15T10:25:55.128Z,31.80
2022-09-15T10:28:25.946Z,33.30
2022-09-15T10:31:06.063Z,35.20
2022-09-15T10:33:36.253Z,36.70
2022-09-15T10:36:08.628Z,37.40
2022-09-15T10:38:44.045Z,38.20
2022-09-15T10:41:23.511Z,38.70
2022-09-15T10:44:15.433Z,38.90
2022-09-15T10:46:58.292Z,39.40
2022-09-15T10:49:41.364Z,39.90
2022-09-15T10:52:21.995Z,39.70
2022-09-15T10:55:09.785Z,39.60
2022-09-15T10:57:53.837Z,38.50
2022-09-15T11:00:22.685Z,36.60
2022-09-15T11:03:13.221Z,32.90
2022-09-15T11:05:52.044Z,30.00
2022-09-15T11:08:35.578Z,28.60
2022-09-15T11:11:12.039Z,29.20
2022-09-15T11:13:56.029Z,29.70
2022-09-15T11:16:40.681Z,31.10
2022-09-15T11:19:37.636Z,32.80
2022-09-15T11:22:11.369Z,35.60
2022-09-15T11:24:45.911Z,41.00
2022-09-15T11:27:19.351Z,42.70
2022-09-15T11:30:03.626Z,44.90
2022-09-15T11:32:33.937Z,48.00
2022-09-15T11:35:29.823Z,50.30
2022-09-15T11:38:02.816Z,51.60
2022-09-15T11:40:38.689Z,53.90
2022-09-15T11:43:17.576Z,55.50
2022-09-15T11:45:50.352Z,58.80
2022-09-15T11:48:23.767Z,61.00
2022-09-15T11:50:55.753Z,62.00
2022-09-15T11:53:32.002Z,64.10
2022-09-15T11:56:10.746Z,65.60
2022-09-15T11:59:04.731Z,69.80
2022-09-15T12:01:42.631Z,63.80
2022-09-15T12:04:16.959Z,54.80
2022-09-15T12:06:49.381Z,47.30
2022-09-15T12:09:19.175Z,41.50
2022-09-15T12:11:50.927Z,37.50
2022-09-15T12:14:35.405Z,35.40
2022-09-15T12:17:06.580Z,32.20
2022-09-15T12:19:48.663Z,30.80
2022-09-15T12:22:23.755Z,29.90
2022-09-15T12:25:00.926Z,28.70
2022-09-15T12:27:31.054Z,28.10
2022-09-15T12:30:00.712Z,27.90
2022-09-15T12:32:29.428Z,27.90
2022-09-15T12:35:04.068Z,28.80
2022-09-15T12:37:38.018Z,30.00
2022-09-15T12:40:08.214Z,31.00
2022-09-15T12:42:38.462Z,32.50
2022-09-15T12:45:20.921Z,34.50
2022-09-15T12:47:53.060Z,35.90
2022-09-15T12:50:28.870Z,34.20
2022-09-15T12:52:59.337Z,32.20
2022-09-15T12:55:28.779Z,32.40
2022-09-15T12:58:01.454Z,32.10
2022-09-15T13:00:45.588Z,33.00
2022-09-15T13:03:50.898Z,33.10
2022-09-15T13:06:21.640Z,33.40
2022-09-15T13:08:55.483Z,34.50
2022-09-15T13:11:34.390Z,35.40
2022-09-15T13:14:14.986Z,36.30
2022-09-15T13:16:53.784Z,38.20
2022-09-15T13:19:25.503Z,39.50
2022-09-15T13:21:59.529Z,41.20
2022-09-15T13:24:45.904Z,42.30
2022-09-15T13:27:15.956Z,43.40
2022-09-15T13:29:50.925Z,44.10
2022-09-15T13:32:29.543Z,44.70
2022-09-15T13:35:27.696Z,45.10
2022-09-15T13:38:24.966Z,46.00
2022-09-15T13:41:32.877Z,47.20
2022-09-15T13:44:21.654Z,48.10
2022-09-15T13:47:00.114Z,48.90
2022-09-15T13:49:49.020Z,50.20
2022-09-15T13:52:32.501Z,50.60
2022-09-15T13:55:17.007Z,51.20
2022-09-15T14:00:48.030Z,51.20
2022-09-15T14:03:25.651Z,50.60
2022-09-15T14:05:54.731Z,51.20
2022-09-15T14:08:26.128Z,53.00
2022-09-15T14:10:57.588Z,60.90
2022-09-15T14:13:27.937Z,69.90
2022-09-15T14:16:01.331Z,76.90
2022-09-15T14:18:31.876Z,86.90
2022-09-15T14:21:02.238Z,92.00
2022-09-15T14:23:30.989Z,96.10
2022-09-15T14:26:01.168Z,99.70
2022-09-15T14:28:32.274Z,99.90
2022-09-15T14:31:01.967Z,99.90
2022-09-15T14:33:38.036Z,99.90
2022-09-15T14:36:22.405Z,99.90
2022-09-15T14:39:08.987Z,99.90
2022-09-15T14:41:37.623Z,99.90
2022-09-15T14:47:14.501Z,99.90
2022-09-15T14:49:43.865Z,99.90
2022-09-15T14:52:27.718Z,99.90
2022-09-15T14:55:01.612Z,99.90
2022-09-15T14:57:33.144Z,99.90
2022-09-15T15:00:08.002Z,99.90
2022-09-15T15:02:51.855Z,99.90
2022-09-15T15:05:27.525Z,99.90
2022-09-15T15:07:56.759Z,99.90
2022-09-15T15:10:26.927Z,99.90
2022-09-15T15:12:57.317Z,99.90
2022-09-15T15:15:25.941Z,99.90
2022-09-15T15:17:55.494Z,99.90
2022-09-15T15:20:27.006Z,99.90
2022-09-15T15:23:13.042Z,99.90
2022-09-15T15:25:41.769Z,99.90
2022-09-15T15:28:31.071Z,99.90
2022-09-15T15:31:15.468Z,99.90
2022-09-15T15:33:48.211Z,99.90
2022-09-15T15:36:22.668Z,99.90
2022-09-15T15:38:53.925Z,99.90
2022-09-15T15:41:23.981Z,99.90
2022-09-15T15:44:00.264Z,99.90
2022-09-15T15:46:48.159Z,99.90
2022-09-15T15:49:16.516Z,99.90
2022-09-15T15:51:45.989Z,99.90
2022-09-15T15:54:14.254Z,99.90
2022-09-15T15:56:42.794Z,99.90
2022-09-15T15:59:13.686Z,99.90
2022-09-15T16:01:42.485Z,99.90
2022-09-15T16:04:13.216Z,99.90
2022-09-15T16:06:42.049Z,99.90
2022-09-15T16:09:12.731Z,99.90
2022-09-15T16:11:42.354Z,99.90
2022-09-15T16:14:12.499Z,99.90
2022-09-15T16:16:40.987Z,99.90
2022-09-15T16:19:09.531Z,99.90
2022-09-15T16:21:40.940Z,99.90
2022-09-15T16:24:14.747Z,99.90
2022-09-15T16:26:43.628Z,99.90
2022-09-15T16:29:11.905Z,99.90
2022-09-15T16:31:41.026Z,99.90
2022-09-15T16:34:18.625Z,99.90
2022-09-15T16:36:47.570Z,99.90
2022-09-15T16:39:16.939Z,99.90
2022-09-15T16:41:45.167Z,99.90
2022-09-15T16:44:19.095Z,99.90
2022-09-15T16:46:47.451Z,99.90
2022-09-15T16:49:15.524Z,99.90
2022-09-15T16:51:43.815Z,99.90
2022-09-15T16:54:17.763Z,99.90
2022-09-15T16:56:46.277Z,99.90
2022-09-15T16:59:14.391Z,99.90
2022-09-15T17:01:42.650Z,99.90
2022-09-15T17:04:15.677Z,99.90
2022-09-15T17:06:44.060Z,99.90
2022-09-15T17:09:12.180Z,99.90
2022-09-15T17:11:41.821Z,99.90
2022-09-15T17:14:13.175Z,99.90
2022-09-15T17:16:41.246Z,99.90
2022-09-15T17:19:09.268Z,99.90
2022-09-15T17:21:37.942Z,99.90
2022-09-15T17:24:06.242Z,99.90
2022-09-15T17:26:34.321Z,99.90
2022-09-15T17:29:03.712Z,99.90
2022-09-15T17:31:32.359Z,99.90
2022-09-15T17:34:00.884Z,99.90
2022-09-15T17:36:28.951Z,99.90
2022-09-15T17:38:56.985Z,99.90
2022-09-15T17:41:24.988Z,99.90
2022-09-15T17:43:53.156Z,99.90
2022-09-15T17:46:22.905Z,99.90
2022-09-15T17:48:50.985Z,99.90
2022-09-15T17:51:19.151Z,99.90
2022-09-15T17:53:47.826Z,99.90
2022-09-15T17:56:16.276Z,99.90
2022-09-15T17:58:44.353Z,99.90
2022-09-15T18:01:14.846Z,99.90
2022-09-15T18:03:45.790Z,99.90
2022-09-15T18:06:13.811Z,99.90
2022-09-15T18:08:41.874Z,99.90
2022-09-15T18:11:12.105Z,99.90
2022-09-15T18:13:40.137Z,99.90
2022-09-15T18:16:12.242Z,99.90
2022-09-15T18:18:41.027Z,99.90
2022-09-15T18:21:18.445Z,99.90
2022-09-15T18:23:46.489Z,99.90
2022-09-15T18:26:14.482Z,99.90
2022-09-15T18:28:42.691Z,99.90
2022-09-15T18:31:13.656Z,99.90
2022-09-15T18:33:42.076Z,99.90
2022-09-15T18:36:11.501Z,99.90
2022-09-15T18:38:39.518Z,99.90
2022-09-15T18:41:11.724Z,99.90
2022-09-15T18:43:39.744Z,99.90
2022-09-15T18:46:08.089Z,99.90
2022-09-15T18:48:36.218Z,99.90
2022-09-15T18:51:08.787Z,99.90
2022-09-15T18:53:38.481Z,99.90
2022-09-15T18:56:10.815Z,99.90
2022-09-15T18:58:38.868Z,99.90
2022-09-15T19:01:07.900Z,99.90
2022-09-15T19:03:36.894Z,99.90
2022-09-15T19:06:05.312Z,99.90
2022-09-15T19:08:35.416Z,99.90
2022-09-15T19:11:05.580Z,99.90
2022-09-15T19:13:35.571Z,99.90
2022-09-15T19:16:05.446Z,99.90
2022-09-15T19:18:33.760Z,99.90
2022-09-15T19:21:07.000Z,99.90
2022-09-15T19:23:36.073Z,99.90
2022-09-15T19:26:07.193Z,99.90
2022-09-15T19:28:35.468Z,99.90
2022-09-15T19:31:03.904Z,99.90
2022-09-15T19:33:32.161Z,99.90
2022-09-15T19:36:24.178Z,99.90
2022-09-15T19:38:52.011Z,99.90
2022-09-15T19:41:21.526Z,99.90
2022-09-15T19:43:49.561Z,99.90
2022-09-15T19:46:21.345Z,99.90
2022-09-15T19:48:50.187Z,99.90
2022-09-15T19:51:19.712Z,99.90
2022-09-15T19:53:48.458Z,99.90
2022-09-15T19:56:17.767Z,99.90
2022-09-15T19:58:47.447Z,99.90
2022-09-15T20:01:16.305Z,99.90
2022-09-15T20:03:44.378Z,99.90
2022-09-15T20:06:12.617Z,99.90
2022-09-15T20:08:41.585Z,99.90
2022-09-15T20:11:10.958Z,99.90
2022-09-15T20:13:41.562Z,99.90
2022-09-15T20:16:15.142Z,99.90
2022-09-15T20:18:43.461Z,99.90
2022-09-15T20:21:21.768Z,99.90
2022-09-15T20:23:56.257Z,99.90
2022-09-15T20:26:24.871Z,99.90
2022-09-15T20:28:53.820Z,99.90
2022-09-15T20:31:25.347Z,99.90
2022-09-15T20:33:54.761Z,99.90
2022-09-15T20:36:25.259Z,99.90
2022-09-15T20:38:54.508Z,99.90
2022-09-15T20:41:25.067Z,99.90
2022-09-15T20:43:53.703Z,99.90
2022-09-15T20:46:24.665Z,99.90
2022-09-15T20:48:53.360Z,99.90
2022-09-15T20:51:23.857Z,99.90
2022-09-15T20:53:54.453Z,99.90
2022-09-15T20:56:25.576Z,99.90
2022-09-15T20:58:54.399Z,99.90
2022-09-15T21:01:26.181Z,99.90
2022-09-15T21:03:55.302Z,99.90
2022-09-15T21:06:25.502Z,99.90
2022-09-15T21:08:55.549Z,99.90
2022-09-15T21:11:24.810Z,99.90
2022-09-15T21:13:53.109Z,99.90
2022-09-15T21:16:23.943Z,99.90
2022-09-15T21:18:53.040Z,99.90
2022-09-15T21:21:22.896Z,99.90
2022-09-15T21:23:53.591Z,99.90
2022-09-15T21:26:23.891Z,99.90
2022-09-15T21:28:52.824Z,99.90
2022-09-15T21:31:24.036Z,99.90
2022-09-15T21:33:54.130Z,99.90
2022-09-15T21:36:23.858Z,99.90
2022-09-15T21:38:54.111Z,99.90
2022-09-15T21:41:25.580Z,99.90
2022-09-15T21:43:55.362Z,99.90
2022-09-15T21:46:27.161Z,99.90
2022-09-15T21:48:57.464Z,99.90
2022-09-15T21:51:28.410Z,99.90
2022-09-15T21:53:58.361Z,99.90
2022-09-15T21:56:27.944Z,99.90
2022-09-15T21:58:56.163Z,99.90
2022-09-15T22:01:27.637Z,99.90
2022-09-15T22:03:57.339Z,99.90
2022-09-15T22:06:30.274Z,99.90
2022-09-15T22:08:58.820Z,99.90
2022-09-15T22:11:27.012Z,99.90
2022-09-15T22:13:55.711Z,99.90
2022-09-15T22:16:26.759Z,99.90
2022-09-15T22:18:55.510Z,99.90
2022-09-15T22:21:26.472Z,99.90
2022-09-15T22:23:56.648Z,99.90
2022-09-15T22:26:26.495Z,99.90
2022-09-15T22:28:55.341Z,99.90
2022-09-15T22:31:26.120Z,99.90
2022-09-15T22:33:54.690Z,99.90
2022-09-15T22:36:28.818Z,99.90
2022-09-15T22:39:03.642Z,99.90
2022-09-15T22:41:32.761Z,99.90
2022-09-15T22:44:00.986Z,99.90
2022-09-15T22:46:30.362Z,99.90
2022-09-15T22:48:58.461Z,99.90
2022-09-15T22:51:26.775Z,99.90
2022-09-15T22:53:56.597Z,99.90
2022-09-15T22:56:26.153Z,99.90
2022-09-15T22:58:54.512Z,99.90
2022-09-15T23:01:24.452Z,99.90
2022-09-15T23:03:55.697Z,99.90
2022-09-15T23:06:24.850Z,99.90
2022-09-15T23:08:53.661Z,99.90
2022-09-15T23:11:22.261Z,99.90
2022-09-15T23:13:50.305Z,99.90
2022-09-15T23:16:18.785Z,99.90
2022-09-15T23:18:47.404Z,99.90
2022-09-15T23:21:17.126Z,99.90
2022-09-15T23:23:48.810Z,99.90
2022-09-15T23:26:18.955Z,99.90
2022-09-15T23:28:47.045Z,99.90
2022-09-15T23:31:15.159Z,99.90
2022-09-15T23:33:44.011Z,99.90
2022-09-15T23:36:14.725Z,99.90
2022-09-15T23:38:45.861Z,99.90
2022-09-15T23:41:15.346Z,99.90
2022-09-15T23:43:43.644Z,99.90
2022-09-15T23:46:12.067Z,99.90
2022-09-15T23:48:40.067Z,99.90
2022-09-15T23:51:08.845Z,99.90
2022-09-15T23:53:37.179Z,99.90
2022-09-15T23:56:07.538Z,99.90
2022-09-15T23:58:35.617Z,99.90
